createdAt,value
2017-12-13T00:01:40.059Z,1009.82
2017-12-13T00:02:40.578Z,1009.83
2017-12-13T00:04:34.468Z,1009.85
2017-12-13T00:05:34.472Z,1009.83
2017-12-13T00:07:28.928Z,1009.81
2017-12-13T00:08:28.893Z,1009.82
2017-12-13T00:10:22.332Z,1009.82
2017-12-13T00:11:22.319Z,1009.77
2017-12-13T00:13:17.293Z,1009.76
2017-12-13T00:14:16.721Z,1009.79
2017-12-13T00:16:10.150Z,1009.72
2017-12-13T00:17:10.142Z,1009.79
2017-12-13T00:19:03.594Z,1009.76
2017-12-13T00:20:03.590Z,1009.74
2017-12-13T00:21:58.024Z,1009.78
2017-12-13T00:22:57.993Z,1009.77
2017-12-13T00:24:52.472Z,1009.71
2017-12-13T00:25:52.458Z,1009.73
2017-12-13T00:27:47.400Z,1009.65
2017-12-13T00:28:47.405Z,1009.67
2017-12-13T00:30:41.327Z,1009.58
2017-12-13T00:31:41.316Z,1009.58
2017-12-13T00:33:35.776Z,1009.53
2017-12-13T00:34:35.753Z,1009.52
2017-12-13T00:36:30.485Z,1009.49
2017-12-13T00:37:30.454Z,1009.41
2017-12-13T00:39:25.905Z,1009.46
2017-12-13T00:40:25.394Z,1009.50
2017-12-13T00:42:18.353Z,1009.45
2017-12-13T00:43:18.314Z,1009.38
2017-12-13T00:45:12.743Z,1009.36
2017-12-13T00:46:12.732Z,1009.35
2017-12-13T00:48:07.154Z,1009.39
2017-12-13T00:49:07.148Z,1009.31
2017-12-13T00:51:01.599Z,1009.37
2017-12-13T00:52:02.097Z,1009.39
2017-12-13T00:53:55.994Z,1009.32
2017-12-13T00:54:55.977Z,1009.31
2017-12-13T00:56:49.420Z,1009.28
2017-12-13T00:57:49.404Z,1009.26
2017-12-13T00:59:44.354Z,1009.25
2017-12-13T01:00:44.783Z,1009.22
2017-12-13T01:02:38.776Z,1009.21
2017-12-13T01:03:38.236Z,1009.18
2017-12-13T01:05:33.175Z,1009.16
2017-12-13T01:06:32.656Z,1009.15
2017-12-13T01:08:27.119Z,1009.16
2017-12-13T01:09:27.086Z,1009.17
2017-12-13T01:11:20.522Z,1009.18
2017-12-13T01:12:20.519Z,1009.13
2017-12-13T01:14:13.976Z,1009.14
2017-12-13T01:15:13.946Z,1009.14
2017-12-13T01:17:08.367Z,1009.15
2017-12-13T01:18:08.359Z,1009.15
2017-12-13T01:20:03.802Z,1009.18
2017-12-13T01:21:03.803Z,1009.17
2017-12-13T01:22:57.364Z,1009.17
2017-12-13T01:23:57.903Z,1009.21
2017-12-13T01:25:51.775Z,1009.17
2017-12-13T01:26:51.793Z,1009.19
2017-12-13T01:28:45.225Z,1009.22
2017-12-13T01:29:45.734Z,1009.21
2017-12-13T01:31:39.605Z,1009.19
2017-12-13T01:32:39.611Z,1009.18
2017-12-13T01:34:33.051Z,1009.22
2017-12-13T01:35:33.554Z,1009.24
2017-12-13T01:37:26.492Z,1009.28
2017-12-13T01:38:26.482Z,1009.25
2017-12-13T01:40:20.895Z,1009.21
2017-12-13T01:41:20.903Z,1009.22
2017-12-13T01:43:15.279Z,1009.20
2017-12-13T01:44:15.276Z,1009.24
2017-12-13T01:46:10.223Z,1009.27
2017-12-13T01:47:09.698Z,1009.27
2017-12-13T01:49:04.180Z,1009.25
2017-12-13T01:50:04.123Z,1009.23
2017-12-13T01:51:59.077Z,1009.18
2017-12-13T01:52:58.544Z,1009.16
2017-12-13T01:54:52.924Z,1009.05
2017-12-13T01:55:52.482Z,1009.04
2017-12-13T01:57:45.933Z,1009.00
2017-12-13T01:58:45.388Z,1008.89
2017-12-13T02:00:40.345Z,1008.76
2017-12-13T02:01:40.358Z,1008.74
2017-12-13T02:03:33.266Z,1008.76
2017-12-13T02:04:33.223Z,1008.76
2017-12-13T02:06:28.180Z,1008.77
2017-12-13T02:07:27.644Z,1008.74
2017-12-13T02:09:21.102Z,1008.70
2017-12-13T02:10:21.084Z,1008.70
2017-12-13T02:12:15.006Z,1008.75
2017-12-13T02:13:14.470Z,1008.74
2017-12-13T02:15:07.933Z,1008.74
2017-12-13T02:16:08.440Z,1008.64
2017-12-13T02:18:02.313Z,1008.59
2017-12-13T02:19:02.305Z,1008.59
2017-12-13T02:20:55.736Z,1008.54
2017-12-13T02:21:56.255Z,1008.55
2017-12-13T02:23:50.144Z,1008.53
2017-12-13T02:24:50.143Z,1008.53
2017-12-13T02:26:44.573Z,1008.48
2017-12-13T02:27:44.563Z,1008.45
2017-12-13T02:29:38.020Z,1008.42
2017-12-13T02:30:38.515Z,1008.39
2017-12-13T02:32:31.372Z,1008.30
2017-12-13T02:33:31.386Z,1008.31
2017-12-13T02:35:25.834Z,1008.29
2017-12-13T02:36:26.740Z,1008.27
2017-12-13T02:38:20.237Z,1008.20
2017-12-13T02:39:20.735Z,1008.19
2017-12-13T02:41:13.649Z,1008.19
2017-12-13T02:42:14.168Z,1008.19
2017-12-13T02:44:07.089Z,1008.20
2017-12-13T02:45:07.583Z,1008.18
2017-12-13T02:47:01.511Z,1008.20
2017-12-13T02:48:00.478Z,1008.16
2017-12-13T02:49:53.922Z,1008.18
2017-12-13T02:50:53.885Z,1008.11
2017-12-13T02:52:48.316Z,1008.07
2017-12-13T02:53:48.295Z,1008.11
2017-12-13T02:55:41.754Z,1008.04
2017-12-13T02:56:41.727Z,1007.99
2017-12-13T02:58:35.676Z,1008.00
2017-12-13T02:59:35.151Z,1007.96
2017-12-13T03:01:30.090Z,1007.87
2017-12-13T03:02:29.572Z,1007.87
2017-12-13T03:04:23.522Z,1007.85
2017-12-13T03:05:22.996Z,1007.81
2017-12-13T03:07:16.422Z,1007.82
2017-12-13T03:08:16.410Z,1007.86
2017-12-13T03:10:10.884Z,1007.80
2017-12-13T03:11:11.860Z,1007.75
2017-12-13T03:13:04.809Z,1007.70
2017-12-13T03:14:04.273Z,1007.68
2017-12-13T03:15:57.704Z,1007.65
2017-12-13T03:16:57.680Z,1007.68
2017-12-13T03:18:51.696Z,1007.64
2017-12-13T03:19:51.104Z,1007.56
2017-12-13T03:21:44.568Z,1007.50
2017-12-13T03:22:45.064Z,1007.54
2017-12-13T03:24:37.965Z,1007.50
2017-12-13T03:25:37.971Z,1007.51
2017-12-13T03:27:32.382Z,1007.48
2017-12-13T03:28:32.379Z,1007.45
2017-12-13T03:30:25.834Z,1007.43
2017-12-13T03:31:25.800Z,1007.40
2017-12-13T03:33:20.737Z,1007.30
2017-12-13T03:34:20.184Z,1007.29
2017-12-13T03:36:14.629Z,1007.26
2017-12-13T03:37:14.601Z,1007.22
2017-12-13T03:39:08.062Z,1007.17
2017-12-13T03:40:08.558Z,1007.13
2017-12-13T03:42:01.448Z,1007.04
2017-12-13T03:43:01.439Z,1007.08
2017-12-13T03:44:55.392Z,1007.05
2017-12-13T03:45:54.852Z,1007.02
2017-12-13T03:47:48.797Z,1007.02
2017-12-13T03:48:48.266Z,1007.01
2017-12-13T03:50:41.688Z,1006.98
2017-12-13T03:51:41.800Z,1006.97
2017-12-13T03:53:36.125Z,1007.00
2017-12-13T03:54:36.104Z,1006.99
2017-12-13T03:56:30.534Z,1006.99
2017-12-13T03:57:31.053Z,1006.93
2017-12-13T03:59:24.968Z,1006.91
2017-12-13T04:00:24.966Z,1006.86
2017-12-13T04:02:19.416Z,1006.85
2017-12-13T04:03:19.400Z,1006.85
2017-12-13T04:05:12.826Z,1006.78
2017-12-13T04:06:12.858Z,1006.76
2017-12-13T04:08:06.785Z,1006.75
2017-12-13T04:09:06.293Z,1006.79
2017-12-13T04:10:59.731Z,1006.73
2017-12-13T04:11:59.684Z,1006.77
2017-12-13T04:13:54.124Z,1006.68
2017-12-13T04:14:54.107Z,1006.75
2017-12-13T04:16:48.537Z,1006.76
2017-12-13T04:17:48.529Z,1006.72
2017-12-13T04:19:41.953Z,1006.72
2017-12-13T04:20:41.941Z,1006.68
2017-12-13T04:22:35.336Z,1006.68
2017-12-13T04:23:35.328Z,1006.63
2017-12-13T04:25:30.286Z,1006.66
2017-12-13T04:26:31.275Z,1006.61
2017-12-13T04:28:25.121Z,1006.57
2017-12-13T04:29:24.188Z,1006.54
2017-12-13T04:31:17.633Z,1006.49
2017-12-13T04:32:17.626Z,1006.51
2017-12-13T04:34:11.057Z,1006.44
2017-12-13T04:35:11.049Z,1006.43
2017-12-13T04:37:05.488Z,1006.40
2017-12-13T04:38:05.995Z,1006.38
2017-12-13T04:39:58.943Z,1006.39
2017-12-13T04:40:58.914Z,1006.35
2017-12-13T04:42:53.295Z,1006.35
2017-12-13T04:43:53.295Z,1006.32
2017-12-13T04:45:47.740Z,1006.28
2017-12-13T04:46:47.740Z,1006.22
2017-12-13T04:48:41.210Z,1006.20
2017-12-13T04:49:41.163Z,1006.21
2017-12-13T04:51:34.647Z,1006.16
2017-12-13T04:52:35.091Z,1006.19
2017-12-13T04:54:27.973Z,1006.19
2017-12-13T04:55:28.004Z,1006.19
2017-12-13T04:57:21.920Z,1006.10
2017-12-13T04:58:21.399Z,1006.08
2017-12-13T05:00:15.345Z,1006.03
2017-12-13T05:01:14.832Z,1006.05
2017-12-13T05:03:09.278Z,1005.97
2017-12-13T05:04:09.228Z,1005.93
2017-12-13T05:06:02.675Z,1005.84
2017-12-13T05:07:02.684Z,1005.89
2017-12-13T05:08:56.128Z,1005.85
2017-12-13T05:09:56.076Z,1005.84
2017-12-13T05:11:49.498Z,1005.81
2017-12-13T05:12:50.029Z,1005.82
2017-12-13T05:14:43.440Z,1005.83
2017-12-13T05:15:42.924Z,1005.80
2017-12-13T05:17:37.367Z,1005.80
2017-12-13T05:18:36.862Z,1005.79
2017-12-13T05:20:30.278Z,1005.76
2017-12-13T05:21:29.740Z,1005.81
2017-12-13T05:23:23.152Z,1005.78
2017-12-13T05:24:23.152Z,1005.78
2017-12-13T05:26:18.089Z,1005.78
2017-12-13T05:27:17.565Z,1005.82
2017-12-13T05:29:12.006Z,1005.79
2017-12-13T05:30:11.990Z,1005.78
2017-12-13T05:32:06.426Z,1005.78
2017-12-13T05:33:05.918Z,1005.71
2017-12-13T05:34:58.846Z,1005.72
2017-12-13T05:35:58.816Z,1005.69
2017-12-13T05:37:53.768Z,1005.69
2017-12-13T05:38:53.232Z,1005.68
2017-12-13T05:40:48.693Z,1005.61
2017-12-13T05:41:48.191Z,1005.56
2017-12-13T05:43:41.619Z,1005.52
2017-12-13T05:44:41.078Z,1005.52
2017-12-13T05:46:34.490Z,1005.41
2017-12-13T05:47:35.019Z,1005.44
2017-12-13T05:49:28.955Z,1005.31
2017-12-13T05:50:29.441Z,1005.27
2017-12-13T05:52:23.317Z,1005.27
2017-12-13T05:53:23.333Z,1005.25
2017-12-13T05:55:16.771Z,1005.22
2017-12-13T05:56:16.277Z,1005.18
2017-12-13T05:58:09.737Z,1005.22
2017-12-13T05:59:09.691Z,1005.17
2017-12-13T06:01:03.632Z,1005.08
2017-12-13T06:02:04.344Z,1005.08
2017-12-13T06:04:01.263Z,1005.09
2017-12-13T06:05:00.251Z,1005.05
2017-12-13T06:06:53.704Z,1005.04
2017-12-13T06:07:53.675Z,1004.95
2017-12-13T06:09:47.098Z,1004.98
2017-12-13T06:10:47.107Z,1004.91
2017-12-13T06:12:42.045Z,1004.88
2017-12-13T06:13:40.614Z,1004.86
2017-12-13T06:15:35.580Z,1004.86
2017-12-13T06:16:35.572Z,1004.89
2017-12-13T06:18:37.984Z,1004.84
2017-12-13T06:19:29.452Z,1004.86
2017-12-13T06:21:23.883Z,1004.83
2017-12-13T06:22:23.878Z,1004.79
2017-12-13T06:24:17.297Z,1004.79
2017-12-13T06:25:17.303Z,1004.75
2017-12-13T06:27:11.779Z,1004.74
2017-12-13T06:28:11.741Z,1004.70
2017-12-13T06:30:05.160Z,1004.67
2017-12-13T06:31:05.155Z,1004.60
2017-12-13T06:32:59.560Z,1004.60
2017-12-13T06:33:59.551Z,1004.58
2017-12-13T06:35:52.986Z,1004.47
2017-12-13T06:36:53.489Z,1004.43
2017-12-13T06:38:47.418Z,1004.36
2017-12-13T06:39:47.418Z,1004.36
2017-12-13T06:41:40.863Z,1004.30
2017-12-13T06:42:41.346Z,1004.31
2017-12-13T06:44:36.192Z,1004.29
2017-12-13T06:45:35.263Z,1004.31
2017-12-13T06:47:29.713Z,1004.23
2017-12-13T06:48:29.665Z,1004.18
2017-12-13T06:50:23.087Z,1004.09
2017-12-13T06:51:23.094Z,1004.08
2017-12-13T06:53:17.509Z,1004.05
2017-12-13T06:54:17.512Z,1004.06
2017-12-13T06:56:10.951Z,1003.99
2017-12-13T06:57:10.906Z,1003.97
2017-12-13T06:59:05.861Z,1003.91
2017-12-13T07:00:05.352Z,1003.93
2017-12-13T07:02:17.941Z,1003.90
2017-12-13T07:02:59.790Z,1004.00
2017-12-13T07:04:54.216Z,1004.03
2017-12-13T07:05:54.202Z,1004.02
2017-12-13T07:07:48.652Z,1004.05
2017-12-13T07:08:48.161Z,1004.09
2017-12-13T07:10:41.571Z,1004.00
2017-12-13T07:11:41.580Z,1004.05
2017-12-13T07:13:35.508Z,1004.00
2017-12-13T07:14:35.466Z,1003.98
2017-12-13T07:16:29.429Z,1003.93
2017-12-13T07:17:28.885Z,1003.93
2017-12-13T07:19:23.331Z,1003.89
2017-12-13T07:20:23.313Z,1003.91
2017-12-13T07:22:17.271Z,1003.80
2017-12-13T07:23:17.263Z,1003.81
2017-12-13T07:25:11.157Z,1003.71
2017-12-13T07:26:11.143Z,1003.67
2017-12-13T07:28:05.572Z,1003.61
2017-12-13T07:29:05.602Z,1003.56
2017-12-13T07:30:59.002Z,1003.47
2017-12-13T07:31:59.527Z,1003.54
2017-12-13T07:33:53.952Z,1003.58
2017-12-13T07:34:53.945Z,1003.55
2017-12-13T07:36:47.372Z,1003.51
2017-12-13T07:37:46.842Z,1003.48
2017-12-13T07:39:41.313Z,1003.44
2017-12-13T07:40:40.295Z,1003.46
2017-12-13T07:42:34.222Z,1003.33
2017-12-13T07:43:33.676Z,1003.27
2017-12-13T07:45:27.091Z,1003.27
2017-12-13T07:46:27.096Z,1003.24
2017-12-13T07:48:20.523Z,1003.25
2017-12-13T07:49:20.513Z,1003.17
2017-12-13T07:51:14.963Z,1003.14
2017-12-13T07:52:14.946Z,1003.16
2017-12-13T07:54:08.392Z,1003.16
2017-12-13T07:55:08.400Z,1003.08
2017-12-13T07:57:01.822Z,1003.02
2017-12-13T07:58:02.338Z,1003.00
2017-12-13T07:59:55.267Z,1002.96
2017-12-13T08:00:55.224Z,1003.04
2017-12-13T08:02:50.180Z,1002.98
2017-12-13T08:03:49.630Z,1002.94
2017-12-13T08:05:43.563Z,1002.93
2017-12-13T08:06:43.036Z,1002.86
2017-12-13T08:08:37.991Z,1002.86
2017-12-13T08:09:37.472Z,1002.84
2017-12-13T08:11:32.430Z,1002.71
2017-12-13T08:12:32.434Z,1002.73
2017-12-13T08:14:25.348Z,1002.68
2017-12-13T08:15:25.324Z,1002.65
2017-12-13T08:17:19.809Z,1002.72
2017-12-13T08:18:19.770Z,1002.61
2017-12-13T08:20:13.224Z,1002.63
2017-12-13T08:21:13.198Z,1002.65
2017-12-13T08:23:07.574Z,1002.64
2017-12-13T08:24:08.145Z,1002.55
2017-12-13T08:26:01.531Z,1002.55
2017-12-13T08:27:01.022Z,1002.49
2017-12-13T08:28:55.439Z,1002.43
2017-12-13T08:29:55.442Z,1002.31
2017-12-13T08:31:49.886Z,1002.27
2017-12-13T08:32:48.879Z,1002.20
2017-12-13T08:34:44.332Z,1002.12
2017-12-13T08:35:43.323Z,1002.17
2017-12-13T08:37:36.791Z,1002.14
2017-12-13T08:38:37.278Z,1002.10
2017-12-13T08:40:30.192Z,1002.11
2017-12-13T08:41:30.710Z,1002.11
2017-12-13T08:43:23.670Z,1002.10
2017-12-13T08:44:23.598Z,1002.17
2017-12-13T08:46:17.542Z,1002.14
2017-12-13T08:47:17.024Z,1002.08
2017-12-13T08:49:10.474Z,1001.98
2017-12-13T08:50:10.430Z,1002.03
2017-12-13T08:52:03.922Z,1002.04
2017-12-13T08:53:03.873Z,1002.01
2017-12-13T08:54:57.298Z,1002.02
2017-12-13T08:55:57.303Z,1001.98
2017-12-13T08:57:52.257Z,1001.91
2017-12-13T08:58:51.727Z,1001.96
2017-12-13T09:00:46.150Z,1001.82
2017-12-13T09:01:46.152Z,1001.81
2017-12-13T09:03:40.574Z,1001.83
2017-12-13T09:04:40.567Z,1001.80
2017-12-13T09:06:34.038Z,1001.71
2017-12-13T09:07:33.994Z,1001.71
2017-12-13T09:09:28.427Z,1001.70
2017-12-13T09:10:28.418Z,1001.66
2017-12-13T09:12:21.898Z,1001.63
2017-12-13T09:13:21.873Z,1001.52
2017-12-13T09:15:15.308Z,1001.44
2017-12-13T09:16:15.312Z,1001.36
2017-12-13T09:18:10.749Z,1001.32
2017-12-13T09:19:09.731Z,1001.33
2017-12-13T09:21:06.206Z,1001.25
2017-12-13T09:22:03.685Z,1001.21
2017-12-13T09:23:56.571Z,1001.22
2017-12-13T09:24:57.116Z,1001.21
2017-12-13T09:26:50.536Z,1001.16
2017-12-13T09:27:50.009Z,1001.18
2017-12-13T09:29:43.453Z,1001.10
2017-12-13T09:30:43.441Z,1001.08
2017-12-13T09:32:38.377Z,1001.08
2017-12-13T09:33:36.814Z,1001.09
2017-12-13T09:35:31.772Z,1000.92
2017-12-13T09:36:31.246Z,1000.87
2017-12-13T09:38:25.203Z,1000.82
2017-12-13T09:39:25.195Z,1000.80
2017-12-13T09:41:18.121Z,1000.78
2017-12-13T09:42:19.061Z,1000.77
2017-12-13T09:44:11.581Z,1000.74
2017-12-13T09:45:11.522Z,1000.64
2017-12-13T09:47:04.972Z,1000.61
2017-12-13T09:48:05.475Z,1000.58
2017-12-13T09:49:58.900Z,1000.47
2017-12-13T09:50:58.900Z,1000.48
2017-12-13T09:52:52.325Z,1000.43
2017-12-13T09:53:51.779Z,1000.42
2017-12-13T09:55:45.739Z,1000.40
2017-12-13T09:56:45.223Z,1000.38
2017-12-13T09:58:38.648Z,1000.33
2017-12-13T09:59:38.633Z,1000.34
2017-12-13T10:01:32.100Z,1000.20
2017-12-13T10:02:32.060Z,1000.21
2017-12-13T10:04:26.528Z,1000.16
2017-12-13T10:05:25.482Z,1000.24
2017-12-13T10:07:18.961Z,1000.12
2017-12-13T10:08:19.433Z,1000.18
2017-12-13T10:10:12.365Z,1000.04
2017-12-13T10:11:12.339Z,1000.10
2017-12-13T10:13:06.294Z,1000.00
2017-12-13T10:14:06.298Z,999.98
2017-12-13T10:15:59.166Z,999.96
2017-12-13T10:16:59.156Z,999.79
2017-12-13T10:18:54.648Z,999.84
2017-12-13T10:19:52.587Z,999.72
2017-12-13T10:21:46.008Z,999.75
2017-12-13T10:22:46.005Z,999.61
2017-12-13T10:24:39.442Z,999.56
2017-12-13T10:25:39.956Z,999.64
2017-12-13T10:27:32.851Z,999.42
2017-12-13T10:28:32.880Z,999.44
2017-12-13T10:30:26.808Z,999.33
2017-12-13T10:31:26.283Z,999.41
2017-12-13T10:33:19.735Z,999.13
2017-12-13T10:34:20.231Z,999.25
2017-12-13T10:36:15.047Z,999.10
2017-12-13T10:37:14.098Z,999.07
2017-12-13T10:39:08.578Z,999.10
2017-12-13T10:40:08.522Z,999.01
2017-12-13T10:42:01.966Z,998.85
2017-12-13T10:43:01.949Z,998.93
2017-12-13T10:44:55.417Z,998.83
2017-12-13T10:45:55.907Z,998.81
2017-12-13T10:47:48.792Z,998.72
2017-12-13T10:48:48.812Z,998.66
2017-12-13T10:50:42.273Z,998.62
2017-12-13T10:51:42.237Z,998.59
2017-12-13T10:53:36.716Z,998.53
2017-12-13T10:54:36.702Z,998.52
2017-12-13T10:56:30.187Z,998.51
2017-12-13T10:57:30.162Z,998.48
2017-12-13T10:59:24.119Z,998.46
2017-12-13T11:00:23.605Z,998.42
2017-12-13T11:02:17.042Z,998.35
2017-12-13T11:03:17.030Z,998.28
2017-12-13T11:05:11.961Z,998.26
2017-12-13T11:06:10.445Z,998.16
2017-12-13T11:08:03.891Z,998.24
2017-12-13T11:09:03.870Z,998.12
2017-12-13T11:10:57.323Z,998.08
2017-12-13T11:11:57.811Z,998.07
2017-12-13T11:13:50.739Z,998.02
2017-12-13T11:14:50.710Z,998.07
2017-12-13T11:16:45.147Z,997.89
2017-12-13T11:17:45.142Z,997.77
2017-12-13T11:19:40.145Z,997.83
2017-12-13T11:20:39.586Z,997.79
2017-12-13T11:22:32.984Z,997.78
2017-12-13T11:23:32.970Z,997.78
2017-12-13T11:25:26.435Z,997.76
2017-12-13T11:26:26.919Z,997.78
2017-12-13T11:28:20.830Z,997.73
2017-12-13T11:29:19.817Z,997.66
2017-12-13T11:31:13.253Z,997.65
2017-12-13T11:32:13.761Z,997.62
2017-12-13T11:34:07.175Z,997.58
2017-12-13T11:35:06.662Z,997.57
2017-12-13T11:37:00.120Z,997.48
2017-12-13T11:38:00.066Z,997.46
2017-12-13T11:39:54.512Z,997.47
2017-12-13T11:40:54.493Z,997.41
2017-12-13T11:42:47.885Z,997.40
2017-12-13T11:43:50.486Z,997.38
2017-12-13T11:45:41.322Z,997.32
2017-12-13T11:46:41.844Z,997.27
2017-12-13T11:48:34.737Z,997.19
2017-12-13T11:49:34.748Z,997.21
2017-12-13T11:51:28.198Z,997.15
2017-12-13T11:52:28.154Z,997.21
2017-12-13T11:54:21.754Z,997.02
2017-12-13T11:55:21.601Z,996.99
2017-12-13T11:57:15.036Z,997.00
2017-12-13T11:58:15.045Z,996.95
2017-12-13T12:00:08.498Z,997.00
2017-12-13T12:01:08.990Z,996.94
2017-12-13T12:03:01.873Z,996.89
2017-12-13T12:04:01.861Z,996.92
2017-12-13T12:05:55.292Z,996.84
2017-12-13T12:06:55.294Z,996.72
2017-12-13T12:08:50.261Z,996.82
2017-12-13T12:09:48.716Z,996.77
2017-12-13T12:11:42.183Z,996.75
2017-12-13T12:12:43.170Z,996.76
2017-12-13T12:14:35.606Z,996.65
2017-12-13T12:15:35.608Z,996.54
2017-12-13T12:17:29.058Z,996.58
2017-12-13T12:18:29.042Z,996.62
2017-12-13T12:20:22.460Z,996.59
2017-12-13T12:21:23.001Z,996.57
2017-12-13T12:23:15.923Z,996.53
2017-12-13T12:24:15.924Z,996.51
2017-12-13T12:26:10.884Z,996.53
2017-12-13T12:27:10.411Z,996.48
2017-12-13T12:29:05.313Z,996.50
2017-12-13T12:32:49.318Z,996.45
2017-12-13T12:33:46.789Z,996.38
2017-12-13T12:35:40.235Z,996.37
2017-12-13T12:36:40.216Z,996.39
2017-12-13T12:38:33.695Z,996.41
2017-12-13T12:39:34.167Z,996.29
2017-12-13T12:41:27.147Z,996.37
2017-12-13T12:42:27.614Z,996.40
2017-12-13T12:44:20.544Z,996.27
2017-12-13T12:45:21.047Z,996.23
2017-12-13T12:47:15.961Z,996.28
2017-12-13T12:48:13.955Z,996.26
2017-12-13T12:50:07.425Z,996.25
2017-12-13T12:51:07.389Z,996.16
2017-12-13T12:53:00.786Z,996.22
2017-12-13T12:54:00.809Z,996.18
2017-12-13T12:55:54.248Z,996.11
2017-12-13T12:56:54.222Z,996.14
2017-12-13T12:58:47.703Z,995.99
2017-12-13T12:59:47.666Z,995.93
2017-12-13T13:01:41.118Z,995.92
2017-12-13T13:02:42.616Z,995.88
2017-12-13T13:04:35.414Z,995.96
2017-12-13T13:05:35.490Z,995.95
2017-12-13T13:07:28.979Z,995.83
2017-12-13T13:08:28.969Z,995.92
2017-12-13T13:10:23.384Z,995.84
2017-12-13T13:11:23.908Z,995.93
2017-12-13T13:13:16.818Z,995.95
2017-12-13T13:14:16.795Z,995.96
2017-12-13T13:16:22.764Z,995.93
2017-12-13T13:17:21.941Z,995.95
2017-12-13T13:19:15.403Z,995.87
2017-12-13T13:20:15.371Z,995.89
2017-12-13T13:22:09.800Z,995.82
2017-12-13T13:23:08.800Z,995.83
2017-12-13T13:25:02.258Z,995.79
2017-12-13T13:26:02.229Z,995.83
2017-12-13T13:27:55.648Z,995.74
2017-12-13T13:28:55.676Z,995.76
2017-12-13T13:30:49.594Z,995.72
2017-12-13T13:31:49.106Z,995.68
2017-12-13T13:33:43.355Z,995.56
2017-12-13T13:34:43.351Z,995.58
2017-12-13T13:36:37.802Z,995.61
2017-12-13T13:37:36.782Z,995.63
2017-12-13T13:39:31.230Z,995.54
2017-12-13T13:40:31.217Z,995.55
2017-12-13T13:42:24.603Z,995.43
2017-12-13T13:43:24.607Z,995.48
2017-12-13T13:45:19.558Z,995.44
2017-12-13T13:46:18.042Z,995.47
2017-12-13T13:48:12.001Z,995.43
2017-12-13T13:49:11.582Z,995.40
2017-12-13T13:51:06.031Z,995.30
2017-12-13T13:52:06.040Z,995.38
2017-12-13T13:53:59.508Z,995.40
2017-12-13T13:54:59.466Z,995.41
2017-12-13T13:56:54.341Z,995.31
2017-12-13T13:57:53.441Z,995.32
2017-12-13T13:59:46.889Z,995.23
2017-12-13T14:00:47.380Z,995.17
2017-12-13T14:02:40.323Z,995.21
2017-12-13T14:03:40.792Z,995.25
2017-12-13T14:05:33.724Z,995.27
2017-12-13T14:06:34.208Z,995.19
2017-12-13T14:08:28.638Z,995.15
2017-12-13T14:09:28.618Z,995.07
2017-12-13T14:11:22.554Z,995.14
2017-12-13T14:12:21.507Z,995.04
2017-12-13T14:14:14.959Z,995.12
2017-12-13T14:15:14.971Z,995.12
2017-12-13T14:17:08.888Z,995.10
2017-12-13T14:18:08.489Z,995.10
2017-12-13T14:20:01.822Z,995.01
2017-12-13T14:21:01.804Z,994.99
2017-12-13T14:22:55.237Z,994.98
2017-12-13T14:23:55.211Z,994.91
2017-12-13T14:25:48.669Z,994.94
2017-12-13T14:26:49.153Z,994.91
2017-12-13T14:28:42.584Z,994.86
2017-12-13T14:29:42.048Z,994.86
2017-12-13T14:31:35.490Z,994.88
2017-12-13T14:32:35.455Z,994.87
2017-12-13T14:34:29.403Z,994.88
2017-12-13T14:35:29.840Z,994.90
2017-12-13T14:37:22.347Z,994.88
2017-12-13T14:38:23.269Z,994.86
2017-12-13T14:40:15.757Z,994.88
2017-12-13T14:41:15.747Z,994.89
2017-12-13T14:43:09.860Z,994.84
2017-12-13T14:44:09.151Z,994.82
2017-12-13T14:46:02.592Z,994.80
2017-12-13T14:47:03.130Z,994.76
2017-12-13T14:48:56.067Z,994.81
2017-12-13T14:49:56.006Z,994.74
2017-12-13T14:51:49.953Z,994.74
2017-12-13T14:52:49.434Z,994.75
2017-12-13T14:54:42.860Z,994.76
2017-12-13T14:55:42.882Z,994.78
2017-12-13T14:57:36.317Z,994.73
2017-12-13T14:58:36.810Z,994.69
2017-12-13T15:00:30.736Z,994.70
2017-12-13T15:01:29.702Z,994.66
2017-12-13T15:03:23.147Z,994.68
2017-12-13T15:04:23.098Z,994.68
2017-12-13T15:06:16.557Z,994.61
2017-12-13T15:07:18.046Z,994.65
2017-12-13T15:09:09.976Z,994.64
2017-12-13T15:10:09.965Z,994.61
2017-12-13T15:12:03.394Z,994.61
2017-12-13T15:13:03.397Z,994.62
2017-12-13T15:14:56.846Z,994.53
2017-12-13T15:15:56.869Z,994.57
2017-12-13T15:17:50.260Z,994.50
2017-12-13T15:18:50.264Z,994.55
2017-12-13T15:20:43.721Z,994.53
2017-12-13T15:21:43.735Z,994.47
2017-12-13T15:23:37.210Z,994.48
2017-12-13T15:24:37.195Z,994.37
2017-12-13T15:26:30.641Z,994.32
2017-12-13T15:27:30.628Z,994.32
2017-12-13T15:29:24.103Z,994.32
2017-12-13T15:30:24.060Z,994.26
2017-12-13T15:32:17.503Z,994.16
2017-12-13T15:33:17.501Z,994.20
2017-12-13T15:35:12.459Z,994.15
2017-12-13T15:36:10.939Z,994.15
2017-12-13T15:38:04.373Z,994.17
2017-12-13T15:39:04.363Z,994.11
2017-12-13T15:40:57.839Z,994.07
2017-12-13T15:41:57.804Z,994.04
2017-12-13T15:43:51.749Z,994.00
2017-12-13T15:44:51.302Z,994.05
2017-12-13T15:46:44.730Z,993.98
2017-12-13T15:47:44.676Z,993.96
2017-12-13T15:49:38.091Z,993.96
2017-12-13T15:50:38.092Z,993.97
2017-12-13T15:52:34.049Z,993.88
2017-12-13T15:53:32.071Z,993.86
2017-12-13T15:55:24.966Z,993.79
2017-12-13T15:56:24.939Z,993.77
2017-12-13T15:58:18.893Z,993.72
2017-12-13T15:59:18.882Z,993.70
2017-12-13T16:01:11.800Z,993.76
2017-12-13T16:02:11.785Z,993.70
2017-12-13T16:04:05.209Z,993.82
2017-12-13T16:05:05.732Z,993.77
2017-12-13T16:07:00.158Z,993.70
2017-12-13T16:07:58.632Z,993.62
2017-12-13T16:09:53.100Z,993.54
2017-12-13T16:10:53.585Z,993.55
2017-12-13T16:12:47.465Z,993.59
2017-12-13T16:13:47.448Z,993.58
2017-12-13T16:15:40.899Z,993.56
2017-12-13T16:16:40.900Z,993.52
2017-12-13T16:18:38.357Z,993.51
2017-12-13T16:19:35.319Z,993.51
2017-12-13T16:21:28.835Z,993.44
2017-12-13T16:22:28.748Z,993.40
2017-12-13T16:24:23.185Z,993.36
2017-12-13T16:25:23.183Z,993.33
2017-12-13T16:27:17.612Z,993.32
2017-12-13T16:28:17.615Z,993.28
2017-12-13T16:30:11.042Z,993.29
2017-12-13T16:31:11.063Z,993.23
2017-12-13T16:33:04.494Z,993.20
2017-12-13T16:34:04.472Z,993.19
2017-12-13T16:35:58.123Z,993.17
2017-12-13T16:36:58.923Z,993.18
2017-12-13T16:38:51.548Z,993.13
2017-12-13T16:39:51.540Z,993.06
2017-12-13T16:41:44.999Z,993.04
2017-12-13T16:42:44.959Z,993.03
2017-12-13T16:44:39.414Z,992.93
2017-12-13T16:45:38.923Z,992.93
2017-12-13T16:47:32.357Z,992.83
2017-12-13T16:48:31.843Z,992.82
2017-12-13T16:50:25.253Z,992.76
2017-12-13T16:51:25.788Z,992.71
2017-12-13T16:53:18.749Z,992.68
2017-12-13T16:54:18.661Z,992.67
2017-12-13T16:56:13.112Z,992.58
2017-12-13T16:57:12.132Z,992.59
2017-12-13T16:59:05.598Z,992.48
2017-12-13T17:00:07.082Z,992.44
2017-12-13T17:02:01.111Z,992.36
2017-12-13T17:02:58.991Z,992.39
2017-12-13T17:04:52.451Z,992.39
2017-12-13T17:05:52.444Z,992.42
2017-12-13T17:07:45.891Z,992.38
2017-12-13T17:08:45.844Z,992.34
2017-12-13T17:10:40.297Z,992.27
2017-12-13T17:11:39.815Z,992.19
2017-12-13T17:13:32.715Z,992.05
2017-12-13T17:14:33.233Z,992.04
2017-12-13T17:16:27.098Z,992.01
2017-12-13T17:17:26.149Z,991.94
2017-12-13T17:19:19.572Z,991.89
2017-12-13T17:20:19.562Z,991.88
2017-12-13T17:22:13.033Z,991.82
2017-12-13T17:23:13.542Z,991.78
2017-12-13T17:25:06.943Z,991.68
2017-12-13T17:26:06.432Z,991.73
2017-12-13T17:28:00.386Z,991.64
2017-12-13T17:28:59.860Z,991.57
2017-12-13T17:30:53.294Z,991.49
2017-12-13T17:31:53.282Z,991.49
2017-12-13T17:33:46.730Z,991.42
2017-12-13T17:34:46.707Z,991.34
2017-12-13T17:36:41.674Z,991.22
2017-12-13T17:37:41.134Z,991.21
2017-12-13T17:39:34.572Z,991.10
2017-12-13T17:40:34.567Z,991.12
2017-12-13T17:42:28.518Z,991.09
2017-12-13T17:43:27.952Z,991.08
2017-12-13T17:45:23.850Z,991.02
2017-12-13T17:46:22.486Z,990.95
2017-12-13T17:48:16.435Z,990.94